sensor_id;sensor_type;location;lat;lon;timestamp;P1;durP1;ratioP1;P2;durP2;ratioP2
13335;SDS011;6737;51.480;11.962;2024-03-22T00:01:10;10.97;;;8.97;;
13335;SDS011;6737;51.480;11.962;2024-03-22T00:03:36;10.27;;;8.83;;
13335;SDS011;6737;51.480;11.962;2024-03-22T00:06:02;12.50;;;9.00;;
13335;SDS011;6737;51.480;11.962;2024-03-22T00:08:28;11.23;;;8.70;;
13335;SDS011;6737;51.480;11.962;2024-03-22T00:10:53;12.40;;;9.17;;
13335;SDS011;6737;51.480;11.962;2024-03-22T00:13:19;12.27;;;8.63;;
13335;SDS011;6737;51.480;11.962;2024-03-22T00:15:45;10.03;;;8.20;;
13335;SDS011;6737;51.480;11.962;2024-03-22T00:18:11;12.40;;;9.17;;
13335;SDS011;6737;51.480;11.962;2024-03-22T00:20:36;11.57;;;8.87;;
13335;SDS011;6737;51.480;11.962;2024-03-22T00:23:02;12.57;;;9.00;;
13335;SDS011;6737;51.480;11.962;2024-03-22T00:25:28;12.03;;;9.40;;
13335;SDS011;6737;51.480;11.962;2024-03-22T00:27:55;11.93;;;8.97;;
13335;SDS011;6737;51.480;11.962;2024-03-22T00:30:20;11.80;;;9.10;;
13335;SDS011;6737;51.480;11.962;2024-03-22T00:32:46;13.47;;;9.23;;
13335;SDS011;6737;51.480;11.962;2024-03-22T00:35:12;11.43;;;8.80;;
13335;SDS011;6737;51.480;11.962;2024-03-22T00:37:38;12.60;;;9.43;;
13335;SDS011;6737;51.480;11.962;2024-03-22T00:40:04;13.13;;;9.73;;
13335;SDS011;6737;51.480;11.962;2024-03-22T00:42:31;12.63;;;9.73;;
13335;SDS011;6737;51.480;11.962;2024-03-22T00:44:56;12.67;;;9.13;;
13335;SDS011;6737;51.480;11.962;2024-03-22T00:47:23;14.13;;;9.97;;
13335;SDS011;6737;51.480;11.962;2024-03-22T00:49:49;13.73;;;9.23;;
13335;SDS011;6737;51.480;11.962;2024-03-22T00:52:15;12.33;;;10.07;;
13335;SDS011;6737;51.480;11.962;2024-03-22T00:54:40;14.23;;;9.97;;
13335;SDS011;6737;51.480;11.962;2024-03-22T00:57:06;11.93;;;9.43;;
13335;SDS011;6737;51.480;11.962;2024-03-22T00:59:32;12.17;;;9.33;;
13335;SDS011;6737;51.480;11.962;2024-03-22T01:01:58;12.23;;;9.63;;
13335;SDS011;6737;51.480;11.962;2024-03-22T01:04:24;17.03;;;10.17;;
13335;SDS011;6737;51.480;11.962;2024-03-22T01:06:49;15.20;;;10.90;;
13335;SDS011;6737;51.480;11.962;2024-03-22T01:09:15;13.50;;;10.47;;
13335;SDS011;6737;51.480;11.962;2024-03-22T01:11:41;12.27;;;9.93;;
13335;SDS011;6737;51.480;11.962;2024-03-22T01:14:07;13.50;;;10.27;;
13335;SDS011;6737;51.480;11.962;2024-03-22T01:16:32;15.63;;;10.70;;
13335;SDS011;6737;51.480;11.962;2024-03-22T01:18:58;15.83;;;10.73;;
13335;SDS011;6737;51.480;11.962;2024-03-22T01:21:24;13.43;;;10.77;;
13335;SDS011;6737;51.480;11.962;2024-03-22T01:23:53;14.00;;;10.20;;
13335;SDS011;6737;51.480;11.962;2024-03-22T01:26:19;12.23;;;10.10;;
13335;SDS011;6737;51.480;11.962;2024-03-22T01:28:45;13.23;;;9.90;;
13335;SDS011;6737;51.480;11.962;2024-03-22T01:31:11;12.83;;;9.77;;
13335;SDS011;6737;51.480;11.962;2024-03-22T01:33:37;14.23;;;9.70;;
13335;SDS011;6737;51.480;11.962;2024-03-22T01:36:03;12.17;;;9.73;;
13335;SDS011;6737;51.480;11.962;2024-03-22T01:38:30;12.87;;;9.30;;
13335;SDS011;6737;51.480;11.962;2024-03-22T01:40:56;12.50;;;9.00;;
13335;SDS011;6737;51.480;11.962;2024-03-22T01:43:22;12.83;;;9.70;;
13335;SDS011;6737;51.480;11.962;2024-03-22T01:45:48;12.43;;;9.20;;
13335;SDS011;6737;51.480;11.962;2024-03-22T01:48:14;13.20;;;9.37;;
13335;SDS011;6737;51.480;11.962;2024-03-22T01:50:40;10.67;;;8.80;;
13335;SDS011;6737;51.480;11.962;2024-03-22T01:53:08;12.10;;;9.60;;
13335;SDS011;6737;51.480;11.962;2024-03-22T01:55:34;11.93;;;9.17;;
13335;SDS011;6737;51.480;11.962;2024-03-22T01:58:00;12.13;;;8.83;;
13335;SDS011;6737;51.480;11.962;2024-03-22T02:00:28;14.40;;;9.23;;
13335;SDS011;6737;51.480;11.962;2024-03-22T02:02:54;10.47;;;8.23;;
13335;SDS011;6737;51.480;11.962;2024-03-22T02:05:19;12.83;;;8.60;;
13335;SDS011;6737;51.480;11.962;2024-03-22T02:07:46;11.20;;;8.40;;
13335;SDS011;6737;51.480;11.962;2024-03-22T02:10:12;12.07;;;8.40;;
13335;SDS011;6737;51.480;11.962;2024-03-22T02:12:40;11.03;;;8.73;;
13335;SDS011;6737;51.480;11.962;2024-03-22T02:15:06;11.07;;;7.70;;
13335;SDS011;6737;51.480;11.962;2024-03-22T02:17:34;9.90;;;7.90;;
13335;SDS011;6737;51.480;11.962;2024-03-22T02:20:00;12.23;;;8.13;;
13335;SDS011;6737;51.480;11.962;2024-03-22T02:22:27;10.37;;;7.70;;
13335;SDS011;6737;51.480;11.962;2024-03-22T02:24:53;9.37;;;8.07;;
13335;SDS011;6737;51.480;11.962;2024-03-22T02:27:19;10.37;;;8.37;;
13335;SDS011;6737;51.480;11.962;2024-03-22T02:29:45;12.43;;;8.47;;
13335;SDS011;6737;51.480;11.962;2024-03-22T02:32:10;9.50;;;8.10;;
13335;SDS011;6737;51.480;11.962;2024-03-22T02:34:36;11.33;;;8.13;;
13335;SDS011;6737;51.480;11.962;2024-03-22T02:37:02;11.53;;;8.83;;
13335;SDS011;6737;51.480;11.962;2024-03-22T02:39:28;11.80;;;8.50;;
13335;SDS011;6737;51.480;11.962;2024-03-22T02:41:54;14.83;;;8.63;;
13335;SDS011;6737;51.480;11.962;2024-03-22T02:44:20;11.90;;;8.53;;
13335;SDS011;6737;51.480;11.962;2024-03-22T02:46:46;10.90;;;8.77;;
13335;SDS011;6737;51.480;11.962;2024-03-22T02:49:12;12.23;;;8.57;;
13335;SDS011;6737;51.480;11.962;2024-03-22T02:51:38;11.87;;;8.57;;
13335;SDS011;6737;51.480;11.962;2024-03-22T02:54:04;10.63;;;8.23;;
13335;SDS011;6737;51.480;11.962;2024-03-22T02:56:30;10.73;;;8.57;;
13335;SDS011;6737;51.480;11.962;2024-03-22T02:58:56;11.80;;;8.53;;
13335;SDS011;6737;51.480;11.962;2024-03-22T03:01:22;11.23;;;8.50;;
13335;SDS011;6737;51.480;11.962;2024-03-22T03:03:48;12.37;;;8.40;;
13335;SDS011;6737;51.480;11.962;2024-03-22T03:06:13;10.23;;;7.83;;
13335;SDS011;6737;51.480;11.962;2024-03-22T03:08:40;11.03;;;8.10;;
13335;SDS011;6737;51.480;11.962;2024-03-22T03:11:06;9.43;;;8.03;;
13335;SDS011;6737;51.480;11.962;2024-03-22T03:13:31;10.50;;;8.10;;
13335;SDS011;6737;51.480;11.962;2024-03-22T03:15:57;9.43;;;7.67;;
13335;SDS011;6737;51.480;11.962;2024-03-22T03:18:23;9.67;;;7.90;;
13335;SDS011;6737;51.480;11.962;2024-03-22T03:20:49;8.63;;;7.73;;
13335;SDS011;6737;51.480;11.962;2024-03-22T03:23:14;11.40;;;8.27;;
13335;SDS011;6737;51.480;11.962;2024-03-22T03:25:40;10.43;;;8.10;;
13335;SDS011;6737;51.480;11.962;2024-03-22T03:28:06;9.93;;;7.90;;
13335;SDS011;6737;51.480;11.962;2024-03-22T03:30:33;11.57;;;8.33;;
13335;SDS011;6737;51.480;11.962;2024-03-22T03:33:00;11.13;;;8.60;;
13335;SDS011;6737;51.480;11.962;2024-03-22T03:35:26;12.20;;;8.47;;
13335;SDS011;6737;51.480;11.962;2024-03-22T03:37:52;10.23;;;8.27;;
13335;SDS011;6737;51.480;11.962;2024-03-22T03:40:18;9.87;;;8.53;;
13335;SDS011;6737;51.480;11.962;2024-03-22T03:42:43;11.30;;;8.03;;
13335;SDS011;6737;51.480;11.962;2024-03-22T03:45:09;10.83;;;8.40;;
13335;SDS011;6737;51.480;11.962;2024-03-22T03:47:35;11.00;;;8.33;;
13335;SDS011;6737;51.480;11.962;2024-03-22T03:50:01;10.33;;;7.80;;
13335;SDS011;6737;51.480;11.962;2024-03-22T03:52:27;9.60;;;8.17;;
13335;SDS011;6737;51.480;11.962;2024-03-22T03:54:53;10.37;;;8.37;;
13335;SDS011;6737;51.480;11.962;2024-03-22T03:57:19;9.30;;;7.47;;
13335;SDS011;6737;51.480;11.962;2024-03-22T03:59:44;10.77;;;8.47;;
13335;SDS011;6737;51.480;11.962;2024-03-22T04:02:10;9.70;;;8.57;;
13335;SDS011;6737;51.480;11.962;2024-03-22T04:04:36;9.87;;;7.93;;
13335;SDS011;6737;51.480;11.962;2024-03-22T04:07:02;10.77;;;8.73;;
13335;SDS011;6737;51.480;11.962;2024-03-22T04:09:28;9.87;;;8.23;;
13335;SDS011;6737;51.480;11.962;2024-03-22T04:11:53;13.07;;;8.50;;
13335;SDS011;6737;51.480;11.962;2024-03-22T04:14:19;10.37;;;8.33;;
13335;SDS011;6737;51.480;11.962;2024-03-22T04:16:45;11.63;;;8.80;;
13335;SDS011;6737;51.480;11.962;2024-03-22T04:19:10;9.80;;;8.50;;
13335;SDS011;6737;51.480;11.962;2024-03-22T04:21:36;11.23;;;8.80;;
13335;SDS011;6737;51.480;11.962;2024-03-22T04:24:02;13.07;;;8.80;;
13335;SDS011;6737;51.480;11.962;2024-03-22T04:26:28;13.40;;;8.37;;
13335;SDS011;6737;51.480;11.962;2024-03-22T04:28:54;10.37;;;8.67;;
13335;SDS011;6737;51.480;11.962;2024-03-22T04:31:19;9.93;;;8.60;;
13335;SDS011;6737;51.480;11.962;2024-03-22T04:33:45;11.67;;;9.40;;
13335;SDS011;6737;51.480;11.962;2024-03-22T04:36:11;9.83;;;8.50;;
13335;SDS011;6737;51.480;11.962;2024-03-22T04:38:36;10.53;;;8.90;;
13335;SDS011;6737;51.480;11.962;2024-03-22T04:41:02;12.17;;;8.93;;
13335;SDS011;6737;51.480;11.962;2024-03-22T04:43:28;10.47;;;8.73;;
13335;SDS011;6737;51.480;11.962;2024-03-22T04:45:54;10.83;;;9.03;;
13335;SDS011;6737;51.480;11.962;2024-03-22T04:48:20;11.30;;;8.83;;
13335;SDS011;6737;51.480;11.962;2024-03-22T04:50:48;9.23;;;8.20;;
13335;SDS011;6737;51.480;11.962;2024-03-22T04:53:19;10.00;;;8.53;;
13335;SDS011;6737;51.480;11.962;2024-03-22T04:55:46;10.67;;;9.07;;
13335;SDS011;6737;51.480;11.962;2024-03-22T04:58:13;11.10;;;9.83;;
13335;SDS011;6737;51.480;11.962;2024-03-22T05:00:44;12.60;;;10.40;;
13335;SDS011;6737;51.480;11.962;2024-03-22T05:03:10;11.83;;;9.50;;
13335;SDS011;6737;51.480;11.962;2024-03-22T05:05:36;10.87;;;9.10;;
13335;SDS011;6737;51.480;11.962;2024-03-22T05:08:03;12.70;;;9.50;;
13335;SDS011;6737;51.480;11.962;2024-03-22T05:10:29;11.20;;;9.23;;
13335;SDS011;6737;51.480;11.962;2024-03-22T05:12:56;10.80;;;9.10;;
13335;SDS011;6737;51.480;11.962;2024-03-22T05:15:22;12.27;;;9.37;;
13335;SDS011;6737;51.480;11.962;2024-03-22T05:17:48;11.93;;;9.53;;
13335;SDS011;6737;51.480;11.962;2024-03-22T05:20:14;13.70;;;9.30;;
13335;SDS011;6737;51.480;11.962;2024-03-22T05:22:42;11.17;;;9.03;;
13335;SDS011;6737;51.480;11.962;2024-03-22T05:25:08;10.60;;;8.90;;
13335;SDS011;6737;51.480;11.962;2024-03-22T05:27:34;12.00;;;9.00;;
13335;SDS011;6737;51.480;11.962;2024-03-22T05:30:00;12.77;;;9.13;;
13335;SDS011;6737;51.480;11.962;2024-03-22T05:32:26;11.17;;;9.07;;
13335;SDS011;6737;51.480;11.962;2024-03-22T05:34:52;10.53;;;9.10;;
13335;SDS011;6737;51.480;11.962;2024-03-22T05:37:18;12.20;;;9.23;;
13335;SDS011;6737;51.480;11.962;2024-03-22T05:39:45;12.77;;;9.67;;
13335;SDS011;6737;51.480;11.962;2024-03-22T05:42:11;12.13;;;9.77;;
13335;SDS011;6737;51.480;11.962;2024-03-22T05:44:36;11.87;;;9.50;;
13335;SDS011;6737;51.480;11.962;2024-03-22T05:47:02;13.37;;;9.30;;
13335;SDS011;6737;51.480;11.962;2024-03-22T05:49:28;14.23;;;10.33;;
13335;SDS011;6737;51.480;11.962;2024-03-22T05:51:55;12.20;;;9.93;;
13335;SDS011;6737;51.480;11.962;2024-03-22T05:54:21;11.30;;;9.40;;
13335;SDS011;6737;51.480;11.962;2024-03-22T05:56:46;13.27;;;9.70;;
13335;SDS011;6737;51.480;11.962;2024-03-22T05:59:12;12.83;;;9.80;;
13335;SDS011;6737;51.480;11.962;2024-03-22T06:01:38;12.57;;;10.03;;
13335;SDS011;6737;51.480;11.962;2024-03-22T06:04:06;13.20;;;9.90;;
13335;SDS011;6737;51.480;11.962;2024-03-22T06:06:34;13.67;;;9.90;;
13335;SDS011;6737;51.480;11.962;2024-03-22T06:09:00;12.93;;;9.67;;
13335;SDS011;6737;51.480;11.962;2024-03-22T06:11:32;13.13;;;9.83;;
13335;SDS011;6737;51.480;11.962;2024-03-22T06:13:58;14.60;;;10.20;;
13335;SDS011;6737;51.480;11.962;2024-03-22T06:16:24;15.27;;;9.77;;
13335;SDS011;6737;51.480;11.962;2024-03-22T06:18:49;12.10;;;9.60;;
13335;SDS011;6737;51.480;11.962;2024-03-22T06:21:15;13.23;;;9.33;;
13335;SDS011;6737;51.480;11.962;2024-03-22T06:23:50;15.73;;;10.30;;
13335;SDS011;6737;51.480;11.962;2024-03-22T06:26:16;13.40;;;10.00;;
13335;SDS011;6737;51.480;11.962;2024-03-22T06:28:43;13.73;;;9.67;;
13335;SDS011;6737;51.480;11.962;2024-03-22T06:31:09;13.33;;;10.30;;
13335;SDS011;6737;51.480;11.962;2024-03-22T06:33:35;13.27;;;10.13;;
13335;SDS011;6737;51.480;11.962;2024-03-22T06:36:01;13.17;;;10.17;;
13335;SDS011;6737;51.480;11.962;2024-03-22T06:38:28;14.13;;;10.77;;
13335;SDS011;6737;51.480;11.962;2024-03-22T06:40:54;15.33;;;11.10;;
13335;SDS011;6737;51.480;11.962;2024-03-22T06:43:20;15.67;;;11.10;;
13335;SDS011;6737;51.480;11.962;2024-03-22T06:45:46;15.33;;;11.07;;
13335;SDS011;6737;51.480;11.962;2024-03-22T06:48:13;16.10;;;10.97;;
13335;SDS011;6737;51.480;11.962;2024-03-22T06:50:41;16.87;;;12.50;;
13335;SDS011;6737;51.480;11.962;2024-03-22T06:53:07;18.87;;;13.30;;
13335;SDS011;6737;51.480;11.962;2024-03-22T06:55:35;19.77;;;13.50;;
13335;SDS011;6737;51.480;11.962;2024-03-22T06:58:01;18.23;;;13.37;;
13335;SDS011;6737;51.480;11.962;2024-03-22T07:00:27;20.40;;;14.07;;
13335;SDS011;6737;51.480;11.962;2024-03-22T07:02:53;21.03;;;15.50;;
13335;SDS011;6737;51.480;11.962;2024-03-22T07:05:20;21.38;;;13.90;;
13335;SDS011;6737;51.480;11.962;2024-03-22T07:07:47;23.20;;;14.30;;
13335;SDS011;6737;51.480;11.962;2024-03-22T07:10:15;21.07;;;13.90;;
13335;SDS011;6737;51.480;11.962;2024-03-22T07:12:41;21.57;;;14.63;;
13335;SDS011;6737;51.480;11.962;2024-03-22T07:15:07;22.07;;;14.87;;
13335;SDS011;6737;51.480;11.962;2024-03-22T07:17:33;22.80;;;15.63;;
13335;SDS011;6737;51.480;11.962;2024-03-22T07:19:59;23.77;;;15.63;;
13335;SDS011;6737;51.480;11.962;2024-03-22T07:22:26;25.40;;;15.63;;
13335;SDS011;6737;51.480;11.962;2024-03-22T07:24:51;22.23;;;15.70;;
13335;SDS011;6737;51.480;11.962;2024-03-22T07:27:17;24.40;;;16.80;;
13335;SDS011;6737;51.480;11.962;2024-03-22T07:29:44;22.00;;;15.40;;
13335;SDS011;6737;51.480;11.962;2024-03-22T07:32:10;24.70;;;16.30;;
13335;SDS011;6737;51.480;11.962;2024-03-22T07:34:36;22.43;;;16.50;;
13335;SDS011;6737;51.480;11.962;2024-03-22T07:37:02;24.87;;;17.10;;
13335;SDS011;6737;51.480;11.962;2024-03-22T07:39:29;25.63;;;16.60;;
13335;SDS011;6737;51.480;11.962;2024-03-22T07:41:55;25.77;;;17.37;;
13335;SDS011;6737;51.480;11.962;2024-03-22T07:44:21;25.67;;;17.57;;
13335;SDS011;6737;51.480;11.962;2024-03-22T07:46:49;24.97;;;16.90;;
13335;SDS011;6737;51.480;11.962;2024-03-22T07:49:15;26.30;;;17.53;;
13335;SDS011;6737;51.480;11.962;2024-03-22T07:51:41;23.07;;;16.60;;
13335;SDS011;6737;51.480;11.962;2024-03-22T07:54:07;24.17;;;17.07;;
13335;SDS011;6737;51.480;11.962;2024-03-22T07:56:33;25.13;;;17.10;;
13335;SDS011;6737;51.480;11.962;2024-03-22T07:58:59;26.83;;;17.70;;
13335;SDS011;6737;51.480;11.962;2024-03-22T08:01:25;27.30;;;17.97;;
13335;SDS011;6737;51.480;11.962;2024-03-22T08:03:51;25.17;;;17.30;;
13335;SDS011;6737;51.480;11.962;2024-03-22T08:06:17;29.70;;;18.60;;
13335;SDS011;6737;51.480;11.962;2024-03-22T08:08:43;28.87;;;18.23;;
13335;SDS011;6737;51.480;11.962;2024-03-22T08:11:09;27.77;;;17.80;;
13335;SDS011;6737;51.480;11.962;2024-03-22T08:13:35;28.40;;;19.17;;
13335;SDS011;6737;51.480;11.962;2024-03-22T08:16:01;27.03;;;19.10;;
13335;SDS011;6737;51.480;11.962;2024-03-22T08:18:28;27.70;;;17.97;;
13335;SDS011;6737;51.480;11.962;2024-03-22T08:20:54;27.60;;;19.50;;
13335;SDS011;6737;51.480;11.962;2024-03-22T08:23:20;28.47;;;18.50;;
13335;SDS011;6737;51.480;11.962;2024-03-22T08:25:48;29.50;;;19.57;;
13335;SDS011;6737;51.480;11.962;2024-03-22T08:28:13;28.47;;;18.73;;
13335;SDS011;6737;51.480;11.962;2024-03-22T08:30:41;28.63;;;18.97;;
13335;SDS011;6737;51.480;11.962;2024-03-22T08:33:10;28.23;;;18.87;;
13335;SDS011;6737;51.480;11.962;2024-03-22T08:35:36;27.80;;;19.10;;
13335;SDS011;6737;51.480;11.962;2024-03-22T08:38:03;26.87;;;18.87;;
13335;SDS011;6737;51.480;11.962;2024-03-22T08:40:30;26.17;;;18.57;;
13335;SDS011;6737;51.480;11.962;2024-03-22T08:42:56;25.77;;;18.33;;
13335;SDS011;6737;51.480;11.962;2024-03-22T08:45:22;28.00;;;18.67;;
13335;SDS011;6737;51.480;11.962;2024-03-22T08:47:48;27.30;;;18.13;;
13335;SDS011;6737;51.480;11.962;2024-03-22T08:50:14;26.57;;;18.20;;
13335;SDS011;6737;51.480;11.962;2024-03-22T08:52:40;25.37;;;16.90;;
13335;SDS011;6737;51.480;11.962;2024-03-22T08:55:06;27.03;;;17.67;;
13335;SDS011;6737;51.480;11.962;2024-03-22T08:57:32;25.20;;;17.23;;
13335;SDS011;6737;51.480;11.962;2024-03-22T08:59:58;26.23;;;16.63;;
13335;SDS011;6737;51.480;11.962;2024-03-22T09:02:24;26.77;;;17.37;;
13335;SDS011;6737;51.480;11.962;2024-03-22T09:04:50;22.93;;;16.47;;
13335;SDS011;6737;51.480;11.962;2024-03-22T09:07:16;25.47;;;16.63;;
13335;SDS011;6737;51.480;11.962;2024-03-22T09:09:42;25.67;;;17.07;;
13335;SDS011;6737;51.480;11.962;2024-03-22T09:12:08;23.57;;;16.37;;
13335;SDS011;6737;51.480;11.962;2024-03-22T09:14:34;24.67;;;16.57;;
13335;SDS011;6737;51.480;11.962;2024-03-22T09:17:00;22.20;;;15.60;;
13335;SDS011;6737;51.480;11.962;2024-03-22T09:19:26;21.57;;;14.83;;
13335;SDS011;6737;51.480;11.962;2024-03-22T09:21:51;24.33;;;16.50;;
13335;SDS011;6737;51.480;11.962;2024-03-22T09:24:18;24.13;;;15.33;;
13335;SDS011;6737;51.480;11.962;2024-03-22T09:26:44;23.63;;;16.63;;
13335;SDS011;6737;51.480;11.962;2024-03-22T09:29:09;23.23;;;15.47;;
13335;SDS011;6737;51.480;11.962;2024-03-22T09:31:35;25.70;;;16.20;;
13335;SDS011;6737;51.480;11.962;2024-03-22T09:34:01;22.47;;;15.40;;
13335;SDS011;6737;51.480;11.962;2024-03-22T09:36:27;21.90;;;16.07;;
13335;SDS011;6737;51.480;11.962;2024-03-22T09:38:53;24.13;;;15.83;;
13335;SDS011;6737;51.480;11.962;2024-03-22T09:41:21;21.13;;;15.40;;
13335;SDS011;6737;51.480;11.962;2024-03-22T09:43:53;22.53;;;15.60;;
13335;SDS011;6737;51.480;11.962;2024-03-22T09:46:22;22.20;;;15.07;;
13335;SDS011;6737;51.480;11.962;2024-03-22T09:48:48;23.73;;;15.23;;
13335;SDS011;6737;51.480;11.962;2024-03-22T09:51:17;22.50;;;15.23;;
13335;SDS011;6737;51.480;11.962;2024-03-22T09:53:44;21.83;;;13.87;;
13335;SDS011;6737;51.480;11.962;2024-03-22T09:56:13;20.33;;;14.13;;
13335;SDS011;6737;51.480;11.962;2024-03-22T09:58:40;18.47;;;13.07;;
13335;SDS011;6737;51.480;11.962;2024-03-22T10:01:07;17.73;;;12.43;;
13335;SDS011;6737;51.480;11.962;2024-03-22T10:03:35;19.03;;;12.80;;
13335;SDS011;6737;51.480;11.962;2024-03-22T10:06:02;18.10;;;12.40;;
13335;SDS011;6737;51.480;11.962;2024-03-22T10:08:28;20.27;;;12.50;;
13335;SDS011;6737;51.480;11.962;2024-03-22T10:10:55;18.90;;;11.67;;
13335;SDS011;6737;51.480;11.962;2024-03-22T10:13:22;17.03;;;11.17;;
13335;SDS011;6737;51.480;11.962;2024-03-22T10:15:48;17.90;;;11.27;;
13335;SDS011;6737;51.480;11.962;2024-03-22T10:18:14;16.37;;;11.77;;
13335;SDS011;6737;51.480;11.962;2024-03-22T10:20:41;16.30;;;10.70;;
13335;SDS011;6737;51.480;11.962;2024-03-22T10:23:08;15.63;;;10.60;;
13335;SDS011;6737;51.480;11.962;2024-03-22T10:25:34;15.00;;;10.20;;
13335;SDS011;6737;51.480;11.962;2024-03-22T10:28:01;15.87;;;9.93;;
13335;SDS011;6737;51.480;11.962;2024-03-22T10:30:26;15.33;;;9.40;;
13335;SDS011;6737;51.480;11.962;2024-03-22T10:32:53;20.40;;;10.10;;
13335;SDS011;6737;51.480;11.962;2024-03-22T10:35:19;14.00;;;9.13;;
13335;SDS011;6737;51.480;11.962;2024-03-22T10:37:45;13.73;;;9.70;;
13335;SDS011;6737;51.480;11.962;2024-03-22T10:40:12;15.27;;;9.80;;
13335;SDS011;6737;51.480;11.962;2024-03-22T10:42:39;15.73;;;9.37;;
13335;SDS011;6737;51.480;11.962;2024-03-22T10:45:07;14.93;;;8.87;;
13335;SDS011;6737;51.480;11.962;2024-03-22T10:47:35;14.63;;;9.47;;
13335;SDS011;6737;51.480;11.962;2024-03-22T10:53:14;15.13;;;9.70;;
13335;SDS011;6737;51.480;11.962;2024-03-22T10:55:35;16.50;;;9.77;;
13335;SDS011;6737;51.480;11.962;2024-03-22T10:58:03;14.67;;;9.87;;
13335;SDS011;6737;51.480;11.962;2024-03-22T11:00:31;15.03;;;9.53;;
13335;SDS011;6737;51.480;11.962;2024-03-22T11:02:58;16.07;;;10.30;;
13335;SDS011;6737;51.480;11.962;2024-03-22T11:05:27;13.80;;;10.57;;
13335;SDS011;6737;51.480;11.962;2024-03-22T11:08:05;15.80;;;10.73;;
13335;SDS011;6737;51.480;11.962;2024-03-22T11:10:34;13.47;;;9.97;;
13335;SDS011;6737;51.480;11.962;2024-03-22T11:13:02;14.68;;;10.80;;
13335;SDS011;6737;51.480;11.962;2024-03-22T11:15:29;16.67;;;11.53;;
13335;SDS011;6737;51.480;11.962;2024-03-22T11:17:59;16.90;;;11.20;;
13335;SDS011;6737;51.480;11.962;2024-03-22T11:20:25;15.32;;;10.93;;
13335;SDS011;6737;51.480;11.962;2024-03-22T11:22:53;13.98;;;10.80;;
13335;SDS011;6737;51.480;11.962;2024-03-22T11:25:19;16.20;;;10.80;;
13335;SDS011;6737;51.480;11.962;2024-03-22T11:27:45;17.30;;;11.98;;
13335;SDS011;6737;51.480;11.962;2024-03-22T11:30:12;14.37;;;10.73;;
13335;SDS011;6737;51.480;11.962;2024-03-22T11:32:38;17.60;;;12.07;;
13335;SDS011;6737;51.480;11.962;2024-03-22T11:35:10;16.30;;;11.67;;
13335;SDS011;6737;51.480;11.962;2024-03-22T11:37:38;16.97;;;11.17;;
13335;SDS011;6737;51.480;11.962;2024-03-22T11:40:04;17.23;;;11.97;;
13335;SDS011;6737;51.480;11.962;2024-03-22T11:42:34;16.53;;;11.27;;
13335;SDS011;6737;51.480;11.962;2024-03-22T11:45:00;16.90;;;11.73;;
13335;SDS011;6737;51.480;11.962;2024-03-22T11:47:27;16.83;;;11.63;;
13335;SDS011;6737;51.480;11.962;2024-03-22T11:49:53;15.00;;;11.23;;
13335;SDS011;6737;51.480;11.962;2024-03-22T11:52:27;16.53;;;12.00;;
13335;SDS011;6737;51.480;11.962;2024-03-22T11:54:53;15.13;;;11.57;;
13335;SDS011;6737;51.480;11.962;2024-03-22T11:57:23;15.73;;;10.90;;
13335;SDS011;6737;51.480;11.962;2024-03-22T11:59:50;16.98;;;11.20;;
13335;SDS011;6737;51.480;11.962;2024-03-22T12:02:16;14.80;;;11.17;;
13335;SDS011;6737;51.480;11.962;2024-03-22T12:04:45;16.67;;;11.80;;
13335;SDS011;6737;51.480;11.962;2024-03-22T12:07:15;14.77;;;10.57;;
13335;SDS011;6737;51.480;11.962;2024-03-22T12:09:42;14.57;;;10.35;;
13335;SDS011;6737;51.480;11.962;2024-03-22T12:12:12;16.65;;;11.35;;
13335;SDS011;6737;51.480;11.962;2024-03-22T12:14:38;16.25;;;11.43;;
13335;SDS011;6737;51.480;11.962;2024-03-22T12:17:05;16.42;;;11.20;;
13335;SDS011;6737;51.480;11.962;2024-03-22T12:19:32;16.50;;;11.50;;
13335;SDS011;6737;51.480;11.962;2024-03-22T12:21:59;15.98;;;11.25;;
13335;SDS011;6737;51.480;11.962;2024-03-22T12:24:26;15.73;;;11.13;;
13335;SDS011;6737;51.480;11.962;2024-03-22T12:26:52;16.85;;;11.75;;
13335;SDS011;6737;51.480;11.962;2024-03-22T12:29:18;17.15;;;11.80;;
13335;SDS011;6737;51.480;11.962;2024-03-22T12:31:45;14.97;;;11.13;;
13335;SDS011;6737;51.480;11.962;2024-03-22T12:34:12;16.13;;;11.45;;
13335;SDS011;6737;51.480;11.962;2024-03-22T12:36:38;16.55;;;11.40;;
13335;SDS011;6737;51.480;11.962;2024-03-22T12:39:04;16.13;;;11.82;;
13335;SDS011;6737;51.480;11.962;2024-03-22T12:41:30;17.15;;;12.13;;
13335;SDS011;6737;51.480;11.962;2024-03-22T12:43:57;17.05;;;12.30;;
13335;SDS011;6737;51.480;11.962;2024-03-22T12:46:22;18.00;;;13.07;;
13335;SDS011;6737;51.480;11.962;2024-03-22T12:48:49;19.20;;;13.02;;
13335;SDS011;6737;51.480;11.962;2024-03-22T12:51:15;17.77;;;12.75;;
13335;SDS011;6737;51.480;11.962;2024-03-22T12:53:41;21.67;;;13.18;;
13335;SDS011;6737;51.480;11.962;2024-03-22T12:56:07;18.65;;;12.75;;
13335;SDS011;6737;51.480;11.962;2024-03-22T12:58:33;22.00;;;13.35;;
13335;SDS011;6737;51.480;11.962;2024-03-22T13:00:59;17.75;;;12.65;;
13335;SDS011;6737;51.480;11.962;2024-03-22T13:03:27;19.63;;;12.93;;
13335;SDS011;6737;51.480;11.962;2024-03-22T13:05:54;21.83;;;13.13;;
13335;SDS011;6737;51.480;11.962;2024-03-22T13:08:20;17.70;;;12.13;;
13335;SDS011;6737;51.480;11.962;2024-03-22T13:10:46;17.65;;;13.02;;
13335;SDS011;6737;51.480;11.962;2024-03-22T13:13:13;21.50;;;13.00;;
13335;SDS011;6737;51.480;11.962;2024-03-22T13:15:44;19.08;;;13.27;;
13335;SDS011;6737;51.480;11.962;2024-03-22T13:18:12;18.98;;;12.70;;
13335;SDS011;6737;51.480;11.962;2024-03-22T13:20:38;19.13;;;12.98;;
13335;SDS011;6737;51.480;11.962;2024-03-22T13:23:04;18.45;;;12.70;;
13335;SDS011;6737;51.480;11.962;2024-03-22T13:25:30;17.38;;;12.52;;
13335;SDS011;6737;51.480;11.962;2024-03-22T13:27:57;16.13;;;12.02;;
13335;SDS011;6737;51.480;11.962;2024-03-22T13:30:24;16.77;;;11.38;;
13335;SDS011;6737;51.480;11.962;2024-03-22T13:32:50;19.52;;;12.27;;
13335;SDS011;6737;51.480;11.962;2024-03-22T13:35:16;16.00;;;12.00;;
13335;SDS011;6737;51.480;11.962;2024-03-22T13:37:42;16.27;;;11.15;;
13335;SDS011;6737;51.480;11.962;2024-03-22T13:40:08;17.33;;;11.80;;
13335;SDS011;6737;51.480;11.962;2024-03-22T13:42:34;17.98;;;11.40;;
13335;SDS011;6737;51.480;11.962;2024-03-22T13:45:00;17.45;;;11.73;;
13335;SDS011;6737;51.480;11.962;2024-03-22T13:47:26;17.27;;;11.48;;
13335;SDS011;6737;51.480;11.962;2024-03-22T13:49:53;14.77;;;11.18;;
13335;SDS011;6737;51.480;11.962;2024-03-22T13:52:19;16.17;;;11.05;;
13335;SDS011;6737;51.480;11.962;2024-03-22T13:54:48;16.92;;;11.45;;
13335;SDS011;6737;51.480;11.962;2024-03-22T13:57:15;16.33;;;11.77;;
13335;SDS011;6737;51.480;11.962;2024-03-22T13:59:41;16.48;;;11.38;;
13335;SDS011;6737;51.480;11.962;2024-03-22T14:02:06;14.60;;;11.52;;
13335;SDS011;6737;51.480;11.962;2024-03-22T14:04:35;15.07;;;11.05;;
13335;SDS011;6737;51.480;11.962;2024-03-22T14:07:01;14.30;;;10.53;;
13335;SDS011;6737;51.480;11.962;2024-03-22T14:09:31;16.33;;;11.45;;
13335;SDS011;6737;51.480;11.962;2024-03-22T14:11:57;14.85;;;11.40;;
13335;SDS011;6737;51.480;11.962;2024-03-22T14:14:25;14.10;;;10.93;;
13335;SDS011;6737;51.480;11.962;2024-03-22T14:16:51;16.27;;;11.13;;
13335;SDS011;6737;51.480;11.962;2024-03-22T14:19:18;16.25;;;11.35;;
13335;SDS011;6737;51.480;11.962;2024-03-22T14:21:44;16.73;;;12.07;;
13335;SDS011;6737;51.480;11.962;2024-03-22T14:24:13;17.17;;;11.50;;
13335;SDS011;6737;51.480;11.962;2024-03-22T14:26:40;16.37;;;11.57;;